Mount Boyce, Australia
Current Conditions -  °F | °C
As of 8:30 AM on Tuesday 25 Nov 2014 (Local Time) from YSRI Reporting Station
Clear Clear  
Wind Chill: 75°   Ceiling: Unl
Heat Index: 75°   Visibility: 6mi
Dew Point: 63°   Wind: 7mph
Humidity: 65%   Direction: 330°NNW
Pressure: 29.88"   Gusts: NA
Location:  33.62°S, 150.27°E
Report Text: YSRI 242130Z AUTO 33006KT 9999 // NCD 24/17 Q1012
Loading
Personal Weather Stations






























Interactive Weather Map New forecast layout! Learn more

10-Day Weather Forecast

Advertisements
Track Severe Weather on mobile